Terminal Aerodrome Forecast
Issued by NWS

Home | Current Version | Previous Version | Text Only | Print | Product List | Glossary On
Versions: 1 2 3 4 5 6 7 8 9 10 11 12 13 14 15 16
000
FTUS45 KABQ 022326
TAFAEG
TAF
KAEG 022326Z 0300/0324 27008KT P6SM VCTS BKN060CB BKN100
     FM030300 33006KT P6SM VCSH BKN050
     FM030600 VRB06KT P6SM FEW040 BKN090
     FM031500 32005KT P6SM FEW120=

USA.gov is the U.S. government's official web portal to all federal, state and local government web resources and services.